sensor_id;sensor_type;location;lat;lon;timestamp;P1;durP1;ratioP1;P2;durP2;ratioP2
8831;SDS011;4452;50.756;4.472;2022-11-15T00:00:04;49.50;;;24.45;;
8831;SDS011;4452;50.756;4.472;2022-11-15T00:02:30;48.17;;;25.05;;
8831;SDS011;4452;50.756;4.472;2022-11-15T00:04:55;53.38;;;25.52;;
8831;SDS011;4452;50.756;4.472;2022-11-15T00:07:21;48.20;;;21.73;;
8831;SDS011;4452;50.756;4.472;2022-11-15T00:09:47;49.22;;;26.05;;
8831;SDS011;4452;50.756;4.472;2022-11-15T00:12:12;47.97;;;24.40;;
8831;SDS011;4452;50.756;4.472;2022-11-15T00:14:38;43.53;;;22.77;;
8831;SDS011;4452;50.756;4.472;2022-11-15T00:17:04;51.60;;;26.05;;
8831;SDS011;4452;50.756;4.472;2022-11-15T00:19:29;45.45;;;23.30;;
8831;SDS011;4452;50.756;4.472;2022-11-15T00:21:55;50.95;;;25.65;;
8831;SDS011;4452;50.756;4.472;2022-11-15T00:24:20;51.55;;;26.73;;
8831;SDS011;4452;50.756;4.472;2022-11-15T00:26:46;48.72;;;25.95;;
8831;SDS011;4452;50.756;4.472;2022-11-15T00:29:12;31.00;;;18.58;;
8831;SDS011;4452;50.756;4.472;2022-11-15T00:31:38;31.90;;;16.70;;
8831;SDS011;4452;50.756;4.472;2022-11-15T00:34:03;39.20;;;20.63;;
8831;SDS011;4452;50.756;4.472;2022-11-15T00:36:32;41.40;;;19.73;;
8831;SDS011;4452;50.756;4.472;2022-11-15T00:38:58;38.63;;;19.70;;
8831;SDS011;4452;50.756;4.472;2022-11-15T00:41:24;41.70;;;22.33;;
8831;SDS011;4452;50.756;4.472;2022-11-15T00:43:49;28.67;;;17.63;;
8831;SDS011;4452;50.756;4.472;2022-11-15T00:46:15;31.33;;;17.38;;
8831;SDS011;4452;50.756;4.472;2022-11-15T00:48:41;43.85;;;23.35;;
8831;SDS011;4452;50.756;4.472;2022-11-15T00:51:06;50.80;;;25.23;;
8831;SDS011;4452;50.756;4.472;2022-11-15T00:53:32;43.78;;;22.75;;
8831;SDS011;4452;50.756;4.472;2022-11-15T00:55:58;42.90;;;20.63;;
8831;SDS011;4452;50.756;4.472;2022-11-15T00:58:23;41.20;;;22.08;;
8831;SDS011;4452;50.756;4.472;2022-11-15T01:00:49;46.20;;;22.88;;
8831;SDS011;4452;50.756;4.472;2022-11-15T01:03:15;39.97;;;21.48;;
8831;SDS011;4452;50.756;4.472;2022-11-15T01:05:40;49.35;;;24.33;;
8831;SDS011;4452;50.756;4.472;2022-11-15T01:08:06;25.73;;;16.92;;
8831;SDS011;4452;50.756;4.472;2022-11-15T01:10:36;29.98;;;20.25;;
8831;SDS011;4452;50.756;4.472;2022-11-15T01:13:02;41.28;;;21.33;;
8831;SDS011;4452;50.756;4.472;2022-11-15T01:15:27;45.20;;;21.08;;
8831;SDS011;4452;50.756;4.472;2022-11-15T01:17:53;55.70;;;25.73;;
8831;SDS011;4452;50.756;4.472;2022-11-15T01:20:19;48.83;;;25.73;;
8831;SDS011;4452;50.756;4.472;2022-11-15T01:22:45;51.97;;;26.92;;
8831;SDS011;4452;50.756;4.472;2022-11-15T01:25:11;44.35;;;23.42;;
8831;SDS011;4452;50.756;4.472;2022-11-15T01:27:36;32.78;;;18.75;;
8831;SDS011;4452;50.756;4.472;2022-11-15T01:30:02;30.58;;;17.20;;
8831;SDS011;4452;50.756;4.472;2022-11-15T01:32:29;46.38;;;25.58;;
8831;SDS011;4452;50.756;4.472;2022-11-15T01:34:55;50.95;;;25.45;;
8831;SDS011;4452;50.756;4.472;2022-11-15T01:37:20;45.58;;;23.60;;
8831;SDS011;4452;50.756;4.472;2022-11-15T01:39:46;48.50;;;21.83;;
8831;SDS011;4452;50.756;4.472;2022-11-15T01:42:12;43.65;;;18.95;;
8831;SDS011;4452;50.756;4.472;2022-11-15T01:47:11;40.90;;;23.80;;
8831;SDS011;4452;50.756;4.472;2022-11-15T01:50:09;40.45;;;22.15;;
8831;SDS011;4452;50.756;4.472;2022-11-15T01:52:37;38.80;;;21.20;;
8831;SDS011;4452;50.756;4.472;2022-11-15T01:55:07;40.60;;;20.67;;
8831;SDS011;4452;50.756;4.472;2022-11-15T01:57:35;39.65;;;20.30;;
8831;SDS011;4452;50.756;4.472;2022-11-15T02:00:03;39.80;;;19.92;;
8831;SDS011;4452;50.756;4.472;2022-11-15T02:02:30;33.47;;;15.88;;
8831;SDS011;4452;50.756;4.472;2022-11-15T02:04:56;37.33;;;20.13;;
8831;SDS011;4452;50.756;4.472;2022-11-15T02:07:21;39.22;;;22.08;;
8831;SDS011;4452;50.756;4.472;2022-11-15T02:09:48;40.63;;;19.33;;
8831;SDS011;4452;50.756;4.472;2022-11-15T02:12:16;44.90;;;22.95;;
8831;SDS011;4452;50.756;4.472;2022-11-15T02:14:46;34.75;;;18.80;;
8831;SDS011;4452;50.756;4.472;2022-11-15T02:17:31;42.97;;;22.10;;
8831;SDS011;4452;50.756;4.472;2022-11-15T02:34:59;49.13;;;23.90;;
8831;SDS011;4452;50.756;4.472;2022-11-15T02:43:18;52.22;;;25.00;;
8831;SDS011;4452;50.756;4.472;2022-11-15T02:46:16;41.97;;;22.40;;
8831;SDS011;4452;50.756;4.472;2022-11-15T02:49:07;42.55;;;22.05;;
8831;SDS011;4452;50.756;4.472;2022-11-15T02:51:34;52.80;;;26.40;;
8831;SDS011;4452;50.756;4.472;2022-11-15T02:54:00;46.45;;;22.80;;
8831;SDS011;4452;50.756;4.472;2022-11-15T02:56:26;38.72;;;19.70;;
8831;SDS011;4452;50.756;4.472;2022-11-15T02:58:56;44.38;;;23.05;;
8831;SDS011;4452;50.756;4.472;2022-11-15T03:01:35;43.58;;;23.80;;
8831;SDS011;4452;50.756;4.472;2022-11-15T03:07:03;46.67;;;23.92;;
8831;SDS011;4452;50.756;4.472;2022-11-15T03:12:12;36.08;;;18.52;;
8831;SDS011;4452;50.756;4.472;2022-11-15T03:14:57;37.45;;;20.88;;
8831;SDS011;4452;50.756;4.472;2022-11-15T03:17:45;46.63;;;23.00;;
8831;SDS011;4452;50.756;4.472;2022-11-15T03:20:16;44.42;;;20.83;;
8831;SDS011;4452;50.756;4.472;2022-11-15T03:22:44;40.40;;;21.20;;
8831;SDS011;4452;50.756;4.472;2022-11-15T03:25:13;36.28;;;16.92;;
8831;SDS011;4452;50.756;4.472;2022-11-15T03:27:46;36.92;;;19.02;;
8831;SDS011;4452;50.756;4.472;2022-11-15T03:30:15;28.05;;;15.38;;
8831;SDS011;4452;50.756;4.472;2022-11-15T03:33:04;27.58;;;13.70;;
8831;SDS011;4452;50.756;4.472;2022-11-15T03:35:30;33.13;;;17.17;;
8831;SDS011;4452;50.756;4.472;2022-11-15T03:40:42;31.30;;;15.15;;
8831;SDS011;4452;50.756;4.472;2022-11-15T03:43:26;23.23;;;13.40;;
8831;SDS011;4452;50.756;4.472;2022-11-15T03:46:01;28.88;;;16.02;;
8831;SDS011;4452;50.756;4.472;2022-11-15T03:48:37;29.70;;;15.23;;
8831;SDS011;4452;50.756;4.472;2022-11-15T03:51:08;27.13;;;14.90;;
8831;SDS011;4452;50.756;4.472;2022-11-15T03:53:35;25.08;;;14.20;;
8831;SDS011;4452;50.756;4.472;2022-11-15T03:56:01;27.63;;;14.20;;
8831;SDS011;4452;50.756;4.472;2022-11-15T03:58:26;24.30;;;12.60;;
8831;SDS011;4452;50.756;4.472;2022-11-15T04:00:52;22.10;;;10.65;;
8831;SDS011;4452;50.756;4.472;2022-11-15T04:03:18;18.55;;;11.30;;
8831;SDS011;4452;50.756;4.472;2022-11-15T04:05:43;28.02;;;13.20;;
8831;SDS011;4452;50.756;4.472;2022-11-15T04:08:09;20.63;;;11.00;;
8831;SDS011;4452;50.756;4.472;2022-11-15T04:10:35;30.40;;;12.30;;
8831;SDS011;4452;50.756;4.472;2022-11-15T04:13:01;19.95;;;7.90;;
8831;SDS011;4452;50.756;4.472;2022-11-15T04:15:27;22.13;;;11.68;;
8831;SDS011;4452;50.756;4.472;2022-11-15T04:17:54;22.00;;;10.20;;
8831;SDS011;4452;50.756;4.472;2022-11-15T04:20:29;9.18;;;6.35;;
8831;SDS011;4452;50.756;4.472;2022-11-15T04:23:15;16.47;;;9.33;;
8831;SDS011;4452;50.756;4.472;2022-11-15T04:26:05;12.57;;;6.55;;
8831;SDS011;4452;50.756;4.472;2022-11-15T04:28:35;10.38;;;7.18;;
8831;SDS011;4452;50.756;4.472;2022-11-15T04:31:24;20.58;;;9.32;;
8831;SDS011;4452;50.756;4.472;2022-11-15T04:33:50;17.83;;;8.20;;
8831;SDS011;4452;50.756;4.472;2022-11-15T04:36:16;21.58;;;9.07;;
8831;SDS011;4452;50.756;4.472;2022-11-15T04:39:00;13.65;;;8.00;;
8831;SDS011;4452;50.756;4.472;2022-11-15T04:41:26;13.57;;;7.40;;
8831;SDS011;4452;50.756;4.472;2022-11-15T04:43:51;21.60;;;6.28;;
8831;SDS011;4452;50.756;4.472;2022-11-15T04:46:17;21.52;;;8.60;;
8831;SDS011;4452;50.756;4.472;2022-11-15T04:48:43;22.35;;;8.57;;
8831;SDS011;4452;50.756;4.472;2022-11-15T04:51:08;13.80;;;7.35;;
8831;SDS011;4452;50.756;4.472;2022-11-15T04:53:34;14.13;;;7.70;;
8831;SDS011;4452;50.756;4.472;2022-11-15T04:55:59;18.50;;;8.85;;
8831;SDS011;4452;50.756;4.472;2022-11-15T04:58:25;10.13;;;6.40;;
8831;SDS011;4452;50.756;4.472;2022-11-15T05:00:51;17.52;;;8.30;;
8831;SDS011;4452;50.756;4.472;2022-11-15T05:03:16;25.40;;;8.40;;
8831;SDS011;4452;50.756;4.472;2022-11-15T05:06:01;16.02;;;6.93;;
8831;SDS011;4452;50.756;4.472;2022-11-15T05:08:27;20.33;;;8.60;;
8831;SDS011;4452;50.756;4.472;2022-11-15T05:10:52;19.63;;;9.32;;
8831;SDS011;4452;50.756;4.472;2022-11-15T05:13:18;14.95;;;8.98;;
8831;SDS011;4452;50.756;4.472;2022-11-15T05:15:44;20.63;;;8.68;;
8831;SDS011;4452;50.756;4.472;2022-11-15T05:18:09;22.80;;;10.10;;
8831;SDS011;4452;50.756;4.472;2022-11-15T05:20:35;22.05;;;8.20;;
8831;SDS011;4452;50.756;4.472;2022-11-15T05:23:01;24.52;;;9.75;;
8831;SDS011;4452;50.756;4.472;2022-11-15T05:25:26;21.30;;;9.57;;
8831;SDS011;4452;50.756;4.472;2022-11-15T05:27:52;19.55;;;9.55;;
8831;SDS011;4452;50.756;4.472;2022-11-15T05:30:18;9.63;;;5.13;;
8831;SDS011;4452;50.756;4.472;2022-11-15T05:32:44;20.98;;;8.95;;
8831;SDS011;4452;50.756;4.472;2022-11-15T05:35:12;20.98;;;10.00;;
8831;SDS011;4452;50.756;4.472;2022-11-15T05:37:43;18.92;;;9.27;;
8831;SDS011;4452;50.756;4.472;2022-11-15T05:40:09;16.88;;;9.52;;
8831;SDS011;4452;50.756;4.472;2022-11-15T05:42:35;26.45;;;10.07;;
8831;SDS011;4452;50.756;4.472;2022-11-15T05:45:01;22.48;;;9.82;;
8831;SDS011;4452;50.756;4.472;2022-11-15T05:47:29;17.92;;;9.23;;
8831;SDS011;4452;50.756;4.472;2022-11-15T05:49:56;21.27;;;9.85;;
8831;SDS011;4452;50.756;4.472;2022-11-15T05:52:25;25.23;;;9.73;;
8831;SDS011;4452;50.756;4.472;2022-11-15T05:54:55;30.10;;;9.80;;
8831;SDS011;4452;50.756;4.472;2022-11-15T05:57:21;26.60;;;10.57;;
8831;SDS011;4452;50.756;4.472;2022-11-15T05:59:47;22.20;;;9.65;;
8831;SDS011;4452;50.756;4.472;2022-11-15T06:02:13;22.55;;;10.63;;
8831;SDS011;4452;50.756;4.472;2022-11-15T06:04:38;21.80;;;10.18;;
8831;SDS011;4452;50.756;4.472;2022-11-15T06:07:04;23.17;;;10.43;;
8831;SDS011;4452;50.756;4.472;2022-11-15T06:09:30;22.25;;;10.25;;
8831;SDS011;4452;50.756;4.472;2022-11-15T06:11:55;28.08;;;10.63;;
8831;SDS011;4452;50.756;4.472;2022-11-15T06:14:21;42.63;;;11.23;;
8831;SDS011;4452;50.756;4.472;2022-11-15T06:16:47;24.00;;;10.82;;
8831;SDS011;4452;50.756;4.472;2022-11-15T06:19:12;27.02;;;10.07;;
8831;SDS011;4452;50.756;4.472;2022-11-15T06:21:38;28.45;;;10.18;;
8831;SDS011;4452;50.756;4.472;2022-11-15T06:24:04;29.15;;;11.45;;
8831;SDS011;4452;50.756;4.472;2022-11-15T06:26:30;25.00;;;10.93;;
8831;SDS011;4452;50.756;4.472;2022-11-15T06:28:59;27.85;;;12.02;;
8831;SDS011;4452;50.756;4.472;2022-11-15T06:31:25;24.95;;;9.80;;
8831;SDS011;4452;50.756;4.472;2022-11-15T06:33:50;21.52;;;10.30;;
8831;SDS011;4452;50.756;4.472;2022-11-15T06:36:16;25.20;;;9.82;;
8831;SDS011;4452;50.756;4.472;2022-11-15T06:38:42;29.40;;;9.85;;
8831;SDS011;4452;50.756;4.472;2022-11-15T06:41:09;21.90;;;9.20;;
8831;SDS011;4452;50.756;4.472;2022-11-15T06:43:36;21.52;;;10.02;;
8831;SDS011;4452;50.756;4.472;2022-11-15T06:46:02;25.17;;;10.48;;
8831;SDS011;4452;50.756;4.472;2022-11-15T06:48:30;27.70;;;11.18;;
8831;SDS011;4452;50.756;4.472;2022-11-15T06:50:57;20.40;;;10.45;;
8831;SDS011;4452;50.756;4.472;2022-11-15T06:53:24;17.55;;;8.25;;
8831;SDS011;4452;50.756;4.472;2022-11-15T06:55:50;30.33;;;10.90;;
8831;SDS011;4452;50.756;4.472;2022-11-15T06:58:16;29.45;;;10.65;;
8831;SDS011;4452;50.756;4.472;2022-11-15T07:00:45;28.00;;;9.93;;
8831;SDS011;4452;50.756;4.472;2022-11-15T07:03:11;25.48;;;11.20;;
8831;SDS011;4452;50.756;4.472;2022-11-15T07:05:37;23.15;;;10.85;;
8831;SDS011;4452;50.756;4.472;2022-11-15T07:08:03;18.50;;;8.15;;
8831;SDS011;4452;50.756;4.472;2022-11-15T07:10:29;34.45;;;11.43;;
8831;SDS011;4452;50.756;4.472;2022-11-15T07:12:55;25.15;;;12.18;;
8831;SDS011;4452;50.756;4.472;2022-11-15T07:15:22;16.40;;;7.75;;
8831;SDS011;4452;50.756;4.472;2022-11-15T07:17:49;25.85;;;10.82;;
8831;SDS011;4452;50.756;4.472;2022-11-15T07:20:16;13.70;;;6.80;;
8831;SDS011;4452;50.756;4.472;2022-11-15T07:22:45;27.67;;;11.48;;
8831;SDS011;4452;50.756;4.472;2022-11-15T07:25:13;23.05;;;10.88;;
8831;SDS011;4452;50.756;4.472;2022-11-15T07:27:41;24.38;;;10.90;;
8831;SDS011;4452;50.756;4.472;2022-11-15T07:30:10;28.90;;;11.52;;
8831;SDS011;4452;50.756;4.472;2022-11-15T07:32:42;13.23;;;5.90;;
8831;SDS011;4452;50.756;4.472;2022-11-15T07:35:10;20.15;;;9.98;;
8831;SDS011;4452;50.756;4.472;2022-11-15T07:37:38;22.42;;;10.27;;
8831;SDS011;4452;50.756;4.472;2022-11-15T07:40:06;26.80;;;10.38;;
8831;SDS011;4452;50.756;4.472;2022-11-15T07:42:32;21.80;;;9.30;;
8831;SDS011;4452;50.756;4.472;2022-11-15T07:45:16;16.45;;;9.57;;
8831;SDS011;4452;50.756;4.472;2022-11-15T07:47:45;16.60;;;8.82;;
8831;SDS011;4452;50.756;4.472;2022-11-15T07:50:11;20.10;;;9.40;;
8831;SDS011;4452;50.756;4.472;2022-11-15T07:52:37;16.23;;;8.30;;
8831;SDS011;4452;50.756;4.472;2022-11-15T07:55:02;21.00;;;9.05;;
8831;SDS011;4452;50.756;4.472;2022-11-15T07:57:29;16.88;;;8.85;;
8831;SDS011;4452;50.756;4.472;2022-11-15T07:59:56;12.55;;;7.90;;
8831;SDS011;4452;50.756;4.472;2022-11-15T08:02:21;16.33;;;7.38;;
8831;SDS011;4452;50.756;4.472;2022-11-15T08:04:47;14.73;;;6.95;;
8831;SDS011;4452;50.756;4.472;2022-11-15T08:07:12;12.27;;;6.75;;
8831;SDS011;4452;50.756;4.472;2022-11-15T08:09:38;16.85;;;6.35;;
8831;SDS011;4452;50.756;4.472;2022-11-15T08:12:04;11.70;;;5.57;;
8831;SDS011;4452;50.756;4.472;2022-11-15T08:14:30;11.00;;;5.50;;
8831;SDS011;4452;50.756;4.472;2022-11-15T08:16:56;14.30;;;5.32;;
8831;SDS011;4452;50.756;4.472;2022-11-15T08:19:22;6.85;;;4.80;;
8831;SDS011;4452;50.756;4.472;2022-11-15T08:21:48;11.63;;;5.60;;
8831;SDS011;4452;50.756;4.472;2022-11-15T08:24:14;11.45;;;3.80;;
8831;SDS011;4452;50.756;4.472;2022-11-15T08:26:41;12.55;;;4.38;;
8831;SDS011;4452;50.756;4.472;2022-11-15T08:29:10;6.65;;;3.83;;
8831;SDS011;4452;50.756;4.472;2022-11-15T08:31:37;16.25;;;4.43;;
8831;SDS011;4452;50.756;4.472;2022-11-15T08:34:04;7.65;;;3.90;;
8831;SDS011;4452;50.756;4.472;2022-11-15T08:36:31;13.95;;;3.83;;
8831;SDS011;4452;50.756;4.472;2022-11-15T08:38:57;9.32;;;3.33;;
8831;SDS011;4452;50.756;4.472;2022-11-15T08:41:33;5.80;;;3.10;;
8831;SDS011;4452;50.756;4.472;2022-11-15T08:44:02;11.27;;;3.72;;
8831;SDS011;4452;50.756;4.472;2022-11-15T08:46:31;13.40;;;3.67;;
8831;SDS011;4452;50.756;4.472;2022-11-15T08:48:58;10.90;;;3.75;;
8831;SDS011;4452;50.756;4.472;2022-11-15T08:51:24;12.77;;;3.13;;
8831;SDS011;4452;50.756;4.472;2022-11-15T08:53:50;8.52;;;3.00;;
8831;SDS011;4452;50.756;4.472;2022-11-15T08:56:15;12.35;;;3.20;;
8831;SDS011;4452;50.756;4.472;2022-11-15T08:58:41;8.38;;;2.78;;
8831;SDS011;4452;50.756;4.472;2022-11-15T09:01:13;9.38;;;2.85;;
8831;SDS011;4452;50.756;4.472;2022-11-15T09:03:41;10.23;;;3.28;;
8831;SDS011;4452;50.756;4.472;2022-11-15T09:06:07;7.15;;;3.17;;
8831;SDS011;4452;50.756;4.472;2022-11-15T09:08:32;8.65;;;2.55;;
8831;SDS011;4452;50.756;4.472;2022-11-15T09:11:02;11.30;;;2.60;;
8831;SDS011;4452;50.756;4.472;2022-11-15T09:13:28;3.45;;;2.15;;
8831;SDS011;4452;50.756;4.472;2022-11-15T09:15:57;4.35;;;2.70;;
8831;SDS011;4452;50.756;4.472;2022-11-15T09:18:24;4.47;;;2.35;;
8831;SDS011;4452;50.756;4.472;2022-11-15T09:20:49;10.20;;;2.33;;
8831;SDS011;4452;50.756;4.472;2022-11-15T09:23:15;6.13;;;2.05;;
8831;SDS011;4452;50.756;4.472;2022-11-15T09:25:41;6.55;;;2.30;;
8831;SDS011;4452;50.756;4.472;2022-11-15T09:28:06;1.90;;;1.73;;
8831;SDS011;4452;50.756;4.472;2022-11-15T09:30:33;6.85;;;2.45;;
8831;SDS011;4452;50.756;4.472;2022-11-15T09:32:58;4.82;;;2.40;;
8831;SDS011;4452;50.756;4.472;2022-11-15T09:35:31;7.55;;;2.53;;
8831;SDS011;4452;50.756;4.472;2022-11-15T09:37:57;8.15;;;2.97;;
8831;SDS011;4452;50.756;4.472;2022-11-15T09:40:23;6.32;;;2.40;;
8831;SDS011;4452;50.756;4.472;2022-11-15T09:45:38;7.70;;;2.30;;
8831;SDS011;4452;50.756;4.472;2022-11-15T09:51:04;5.75;;;2.10;;
8831;SDS011;4452;50.756;4.472;2022-11-15T09:53:39;9.25;;;2.42;;
8831;SDS011;4452;50.756;4.472;2022-11-15T09:56:22;4.30;;;2.38;;
8831;SDS011;4452;50.756;4.472;2022-11-15T10:01:25;5.35;;;2.17;;
8831;SDS011;4452;50.756;4.472;2022-11-15T10:04:12;7.95;;;2.10;;
8831;SDS011;4452;50.756;4.472;2022-11-15T10:06:40;6.32;;;2.72;;
8831;SDS011;4452;50.756;4.472;2022-11-15T10:09:15;7.18;;;2.30;;
8831;SDS011;4452;50.756;4.472;2022-11-15T10:11:48;4.18;;;1.70;;
8831;SDS011;4452;50.756;4.472;2022-11-15T10:14:32;4.75;;;2.10;;
8831;SDS011;4452;50.756;4.472;2022-11-15T10:22:26;7.57;;;2.20;;
8831;SDS011;4452;50.756;4.472;2022-11-15T10:27:34;7.55;;;2.20;;
8831;SDS011;4452;50.756;4.472;2022-11-15T10:30:01;5.22;;;1.90;;
8831;SDS011;4452;50.756;4.472;2022-11-15T10:32:28;9.45;;;2.72;;
8831;SDS011;4452;50.756;4.472;2022-11-15T10:34:58;5.50;;;1.77;;
8831;SDS011;4452;50.756;4.472;2022-11-15T10:37:28;9.40;;;2.03;;
8831;SDS011;4452;50.756;4.472;2022-11-15T10:40:05;4.90;;;1.80;;
8831;SDS011;4452;50.756;4.472;2022-11-15T10:42:39;9.63;;;2.30;;
8831;SDS011;4452;50.756;4.472;2022-11-15T10:45:22;6.05;;;2.38;;
8831;SDS011;4452;50.756;4.472;2022-11-15T10:47:53;6.70;;;2.13;;
8831;SDS011;4452;50.756;4.472;2022-11-15T10:50:40;4.05;;;2.40;;
8831;SDS011;4452;50.756;4.472;2022-11-15T10:53:27;5.55;;;2.13;;
8831;SDS011;4452;50.756;4.472;2022-11-15T10:56:06;9.38;;;2.33;;
8831;SDS011;4452;50.756;4.472;2022-11-15T10:58:44;4.93;;;1.70;;
8831;SDS011;4452;50.756;4.472;2022-11-15T11:01:25;5.25;;;1.92;;
8831;SDS011;4452;50.756;4.472;2022-11-15T11:04:03;9.13;;;2.45;;
8831;SDS011;4452;50.756;4.472;2022-11-15T11:07:19;7.93;;;2.33;;
8831;SDS011;4452;50.756;4.472;2022-11-15T11:14:42;9.98;;;2.78;;
8831;SDS011;4452;50.756;4.472;2022-11-15T11:22:38;8.93;;;1.95;;
8831;SDS011;4452;50.756;4.472;2022-11-15T11:27:59;8.15;;;2.00;;
8831;SDS011;4452;50.756;4.472;2022-11-15T11:30:40;9.73;;;1.80;;
8831;SDS011;4452;50.756;4.472;2022-11-15T11:35:49;6.50;;;2.05;;
8831;SDS011;4452;50.756;4.472;2022-11-15T11:47:09;4.60;;;1.77;;
8831;SDS011;4452;50.756;4.472;2022-11-15T11:52:31;7.40;;;1.80;;
8831;SDS011;4452;50.756;4.472;2022-11-15T11:55:15;7.80;;;2.00;;
8831;SDS011;4452;50.756;4.472;2022-11-15T12:05:56;5.28;;;1.85;;
8831;SDS011;4452;50.756;4.472;2022-11-15T12:11:14;5.53;;;1.90;;
8831;SDS011;4452;50.756;4.472;2022-11-15T12:14:00;6.15;;;2.10;;
8831;SDS011;4452;50.756;4.472;2022-11-15T12:16:29;5.75;;;2.00;;
8831;SDS011;4452;50.756;4.472;2022-11-15T12:18:59;10.23;;;2.70;;
8831;SDS011;4452;50.756;4.472;2022-11-15T12:27:06;6.30;;;1.70;;
8831;SDS011;4452;50.756;4.472;2022-11-15T12:29:56;3.90;;;1.83;;
8831;SDS011;4452;50.756;4.472;2022-11-15T12:34:57;6.97;;;2.30;;
8831;SDS011;4452;50.756;4.472;2022-11-15T12:42:56;4.65;;;1.85;;
8831;SDS011;4452;50.756;4.472;2022-11-15T12:45:28;6.25;;;1.75;;
8831;SDS011;4452;50.756;4.472;2022-11-15T12:58:42;1.98;;;1.40;;
8831;SDS011;4452;50.756;4.472;2022-11-15T13:06:48;4.35;;;1.75;;
8831;SDS011;4452;50.756;4.472;2022-11-15T13:17:03;2.72;;;1.98;;
8831;SDS011;4452;50.756;4.472;2022-11-15T13:19:46;3.42;;;2.40;;
8831;SDS011;4452;50.756;4.472;2022-11-15T13:22:13;8.23;;;2.42;;
8831;SDS011;4452;50.756;4.472;2022-11-15T13:25:01;5.72;;;2.20;;
8831;SDS011;4452;50.756;4.472;2022-11-15T13:27:27;4.82;;;1.85;;
8831;SDS011;4452;50.756;4.472;2022-11-15T13:29:54;4.45;;;2.03;;
8831;SDS011;4452;50.756;4.472;2022-11-15T13:32:19;4.40;;;2.00;;
8831;SDS011;4452;50.756;4.472;2022-11-15T13:34:47;6.50;;;2.08;;
8831;SDS011;4452;50.756;4.472;2022-11-15T13:39:50;3.63;;;1.95;;
8831;SDS011;4452;50.756;4.472;2022-11-15T13:42:16;4.28;;;2.22;;
8831;SDS011;4452;50.756;4.472;2022-11-15T13:44:56;3.78;;;2.25;;
8831;SDS011;4452;50.756;4.472;2022-11-15T13:47:27;3.55;;;2.20;;
8831;SDS011;4452;50.756;4.472;2022-11-15T13:49:56;5.78;;;2.00;;
8831;SDS011;4452;50.756;4.472;2022-11-15T13:52:22;3.58;;;2.30;;
8831;SDS011;4452;50.756;4.472;2022-11-15T13:55:13;7.45;;;2.05;;
8831;SDS011;4452;50.756;4.472;2022-11-15T13:57:57;4.90;;;2.08;;
8831;SDS011;4452;50.756;4.472;2022-11-15T14:00:44;2.35;;;2.00;;
8831;SDS011;4452;50.756;4.472;2022-11-15T14:03:32;2.28;;;1.90;;
8831;SDS011;4452;50.756;4.472;2022-11-15T14:06:02;2.58;;;2.22;;
8831;SDS011;4452;50.756;4.472;2022-11-15T14:08:37;2.35;;;1.95;;
8831;SDS011;4452;50.756;4.472;2022-11-15T14:11:23;2.88;;;2.08;;
8831;SDS011;4452;50.756;4.472;2022-11-15T14:14:04;3.97;;;2.00;;
8831;SDS011;4452;50.756;4.472;2022-11-15T14:16:42;7.07;;;2.30;;
8831;SDS011;4452;50.756;4.472;2022-11-15T14:19:11;5.03;;;2.17;;
8831;SDS011;4452;50.756;4.472;2022-11-15T14:22:15;3.95;;;2.13;;
8831;SDS011;4452;50.756;4.472;2022-11-15T14:24:46;7.45;;;2.20;;
8831;SDS011;4452;50.756;4.472;2022-11-15T14:27:29;3.25;;;2.00;;
8831;SDS011;4452;50.756;4.472;2022-11-15T14:29:55;1.83;;;1.70;;
8831;SDS011;4452;50.756;4.472;2022-11-15T14:32:22;2.25;;;1.95;;
8831;SDS011;4452;50.756;4.472;2022-11-15T14:34:54;3.08;;;2.10;;
8831;SDS011;4452;50.756;4.472;2022-11-15T14:40:04;2.72;;;1.98;;
8831;SDS011;4452;50.756;4.472;2022-11-15T14:42:31;6.45;;;2.25;;
8831;SDS011;4452;50.756;4.472;2022-11-15T14:44:57;2.38;;;1.98;;
8831;SDS011;4452;50.756;4.472;2022-11-15T14:47:22;5.57;;;2.20;;
8831;SDS011;4452;50.756;4.472;2022-11-15T14:49:48;3.38;;;2.00;;
8831;SDS011;4452;50.756;4.472;2022-11-15T14:52:24;4.30;;;2.00;;
8831;SDS011;4452;50.756;4.472;2022-11-15T14:54:53;2.80;;;2.00;;
8831;SDS011;4452;50.756;4.472;2022-11-15T14:57:19;2.45;;;2.25;;
8831;SDS011;4452;50.756;4.472;2022-11-15T14:59:45;4.13;;;2.20;;
8831;SDS011;4452;50.756;4.472;2022-11-15T15:02:21;2.60;;;2.08;;
8831;SDS011;4452;50.756;4.472;2022-11-15T15:04:49;4.03;;;1.92;;
8831;SDS011;4452;50.756;4.472;2022-11-15T15:07:15;2.90;;;2.03;;
8831;SDS011;4452;50.756;4.472;2022-11-15T15:09:42;2.28;;;2.08;;
8831;SDS011;4452;50.756;4.472;2022-11-15T15:12:16;2.60;;;1.90;;
8831;SDS011;4452;50.756;4.472;2022-11-15T15:14:43;2.35;;;2.13;;
8831;SDS011;4452;50.756;4.472;2022-11-15T15:17:10;1.73;;;1.63;;
8831;SDS011;4452;50.756;4.472;2022-11-15T15:19:36;2.90;;;2.30;;
8831;SDS011;4452;50.756;4.472;2022-11-15T15:22:01;5.88;;;2.05;;
8831;SDS011;4452;50.756;4.472;2022-11-15T15:24:27;4.93;;;2.20;;
8831;SDS011;4452;50.756;4.472;2022-11-15T15:26:52;5.40;;;2.72;;
8831;SDS011;4452;50.756;4.472;2022-11-15T15:29:18;6.20;;;2.60;;
8831;SDS011;4452;50.756;4.472;2022-11-15T15:31:44;7.28;;;2.47;;
8831;SDS011;4452;50.756;4.472;2022-11-15T15:34:09;5.63;;;2.45;;
8831;SDS011;4452;50.756;4.472;2022-11-15T15:36:35;11.60;;;5.65;;
8831;SDS011;4452;50.756;4.472;2022-11-15T15:39:01;4.85;;;3.38;;
8831;SDS011;4452;50.756;4.472;2022-11-15T15:41:26;3.95;;;3.03;;
8831;SDS011;4452;50.756;4.472;2022-11-15T15:43:52;5.72;;;3.22;;
8831;SDS011;4452;50.756;4.472;2022-11-15T15:46:18;3.88;;;3.22;;
8831;SDS011;4452;50.756;4.472;2022-11-15T15:48:45;5.15;;;3.30;;
8831;SDS011;4452;50.756;4.472;2022-11-15T15:51:11;5.10;;;2.90;;
8831;SDS011;4452;50.756;4.472;2022-11-15T15:53:37;8.95;;;4.20;;
8831;SDS011;4452;50.756;4.472;2022-11-15T15:56:03;6.57;;;3.63;;
8831;SDS011;4452;50.756;4.472;2022-11-15T15:58:32;6.53;;;3.53;;
8831;SDS011;4452;50.756;4.472;2022-11-15T16:00:58;8.68;;;3.20;;
8831;SDS011;4452;50.756;4.472;2022-11-15T16:03:24;5.38;;;3.40;;
8831;SDS011;4452;50.756;4.472;2022-11-15T16:05:50;9.07;;;3.70;;
8831;SDS011;4452;50.756;4.472;2022-11-15T16:08:17;5.82;;;3.50;;
8831;SDS011;4452;50.756;4.472;2022-11-15T16:10:44;7.53;;;3.40;;
8831;SDS011;4452;50.756;4.472;2022-11-15T16:13:09;4.03;;;3.00;;
8831;SDS011;4452;50.756;4.472;2022-11-15T16:15:35;5.40;;;3.60;;
8831;SDS011;4452;50.756;4.472;2022-11-15T16:18:01;3.58;;;3.13;;
8831;SDS011;4452;50.756;4.472;2022-11-15T16:20:36;7.07;;;3.60;;
8831;SDS011;4452;50.756;4.472;2022-11-15T16:23:10;4.15;;;3.03;;
8831;SDS011;4452;50.756;4.472;2022-11-15T16:25:41;6.72;;;3.92;;
8831;SDS011;4452;50.756;4.472;2022-11-15T16:30:46;7.00;;;3.78;;
8831;SDS011;4452;50.756;4.472;2022-11-15T16:33:12;5.60;;;3.42;;
8831;SDS011;4452;50.756;4.472;2022-11-15T16:35:38;6.25;;;3.83;;
8831;SDS011;4452;50.756;4.472;2022-11-15T16:38:03;3.80;;;3.45;;
8831;SDS011;4452;50.756;4.472;2022-11-15T16:40:33;5.95;;;3.67;;
8831;SDS011;4452;50.756;4.472;2022-11-15T16:42:59;5.97;;;4.07;;
8831;SDS011;4452;50.756;4.472;2022-11-15T16:45:27;4.30;;;3.70;;
8831;SDS011;4452;50.756;4.472;2022-11-15T16:47:53;4.95;;;4.03;;
8831;SDS011;4452;50.756;4.472;2022-11-15T16:52:53;5.97;;;3.97;;
8831;SDS011;4452;50.756;4.472;2022-11-15T16:55:22;6.07;;;4.32;;
8831;SDS011;4452;50.756;4.472;2022-11-15T16:57:48;7.40;;;4.30;;
8831;SDS011;4452;50.756;4.472;2022-11-15T17:00:15;6.38;;;3.80;;
8831;SDS011;4452;50.756;4.472;2022-11-15T17:02:46;5.68;;;4.10;;
8831;SDS011;4452;50.756;4.472;2022-11-15T17:05:13;4.18;;;3.70;;
8831;SDS011;4452;50.756;4.472;2022-11-15T17:07:41;4.47;;;3.85;;
8831;SDS011;4452;50.756;4.472;2022-11-15T17:10:08;6.57;;;4.20;;
8831;SDS011;4452;50.756;4.472;2022-11-15T17:12:35;6.30;;;4.20;;
8831;SDS011;4452;50.756;4.472;2022-11-15T17:15:01;8.02;;;4.20;;
8831;SDS011;4452;50.756;4.472;2022-11-15T17:17:28;9.80;;;4.70;;
8831;SDS011;4452;50.756;4.472;2022-11-15T17:19:54;6.30;;;4.60;;
8831;SDS011;4452;50.756;4.472;2022-11-15T17:22:20;6.75;;;4.90;;
8831;SDS011;4452;50.756;4.472;2022-11-15T17:24:46;6.65;;;4.80;;
8831;SDS011;4452;50.756;4.472;2022-11-15T17:27:11;6.45;;;4.82;;
8831;SDS011;4452;50.756;4.472;2022-11-15T17:29:37;5.85;;;4.25;;